sensor_id;sensor_type;location;lat;lon;timestamp;pressure;altitude;pressure_sealevel;temperature
70819;BMP280;58439;51.046;13.692;2022-09-01T00:00:11;100694.59;;;14.20
70819;BMP280;58439;51.046;13.692;2022-09-01T00:02:40;100692.97;;;14.26
70819;BMP280;58439;51.046;13.692;2022-09-01T00:05:09;100701.06;;;14.24
70819;BMP280;58439;51.046;13.692;2022-09-01T00:07:38;100701.69;;;14.26
70819;BMP280;58439;51.046;13.692;2022-09-01T00:10:09;100700.44;;;14.22
70819;BMP280;58439;51.046;13.692;2022-09-01T00:12:39;100708.97;;;14.17
70819;BMP280;58439;51.046;13.692;2022-09-01T00:15:09;100702.47;;;14.13
70819;BMP280;58439;51.046;13.692;2022-09-01T00:17:37;100714.03;;;14.19
70819;BMP280;58439;51.046;13.692;2022-09-01T00:20:06;100709.78;;;14.25
70819;BMP280;58439;51.046;13.692;2022-09-01T00:22:34;100707.56;;;14.22
70819;BMP280;58439;51.046;13.692;2022-09-01T00:25:06;100701.25;;;14.16
70819;BMP280;58439;51.046;13.692;2022-09-01T00:27:36;100698.41;;;14.11
70819;BMP280;58439;51.046;13.692;2022-09-01T00:30:08;100701.03;;;14.11
70819;BMP280;58439;51.046;13.692;2022-09-01T00:32:37;100704.28;;;14.06
70819;BMP280;58439;51.046;13.692;2022-09-01T00:35:05;100694.78;;;14.12
70819;BMP280;58439;51.046;13.692;2022-09-01T00:37:36;100694.59;;;14.13
70819;BMP280;58439;51.046;13.692;2022-09-01T00:40:06;100698.84;;;14.14
70819;BMP280;58439;51.046;13.692;2022-09-01T00:42:33;100695.78;;;14.17
70819;BMP280;58439;51.046;13.692;2022-09-01T00:45:01;100700.28;;;14.24
70819;BMP280;58439;51.046;13.692;2022-09-01T00:47:28;100695.44;;;14.27
70819;BMP280;58439;51.046;13.692;2022-09-01T00:49:55;100697.81;;;14.29
70819;BMP280;58439;51.046;13.692;2022-09-01T00:52:43;100695.00;;;14.24
70819;BMP280;58439;51.046;13.692;2022-09-01T00:55:21;100691.97;;;14.20
70819;BMP280;58439;51.046;13.692;2022-09-01T00:57:49;100695.22;;;14.15
70819;BMP280;58439;51.046;13.692;2022-09-01T01:00:22;100682.63;;;14.11
70819;BMP280;58439;51.046;13.692;2022-09-01T01:02:52;100689.50;;;13.99
70819;BMP280;58439;51.046;13.692;2022-09-01T01:05:30;100686.06;;;13.92
70819;BMP280;58439;51.046;13.692;2022-09-01T01:08:01;100683.63;;;13.90
70819;BMP280;58439;51.046;13.692;2022-09-01T01:10:32;100690.72;;;13.89
70819;BMP280;58439;51.046;13.692;2022-09-01T01:13:08;100689.09;;;13.88
70819;BMP280;58439;51.046;13.692;2022-09-01T01:15:36;100690.91;;;13.88
70819;BMP280;58439;51.046;13.692;2022-09-01T01:18:03;100685.44;;;13.83
70819;BMP280;58439;51.046;13.692;2022-09-01T01:20:32;100684.22;;;13.85
70819;BMP280;58439;51.046;13.692;2022-09-01T01:23:44;100682.78;;;13.83
70819;BMP280;58439;51.046;13.692;2022-09-01T01:26:14;100676.13;;;13.80
70819;BMP280;58439;51.046;13.692;2022-09-01T01:28:42;100680.75;;;13.78
70819;BMP280;58439;51.046;13.692;2022-09-01T01:31:14;100687.84;;;13.78
70819;BMP280;58439;51.046;13.692;2022-09-01T01:33:49;100694.69;;;13.79
70819;BMP280;58439;51.046;13.692;2022-09-01T01:36:26;100678.34;;;13.77
70819;BMP280;58439;51.046;13.692;2022-09-01T01:39:17;100682.75;;;13.70
70819;BMP280;58439;51.046;13.692;2022-09-01T01:41:46;100684.59;;;13.69
70819;BMP280;58439;51.046;13.692;2022-09-01T01:44:21;100687.00;;;13.71
70819;BMP280;58439;51.046;13.692;2022-09-01T01:46:54;100689.44;;;13.72
70819;BMP280;58439;51.046;13.692;2022-09-01T01:49:26;100692.88;;;13.79
70819;BMP280;58439;51.046;13.692;2022-09-01T01:51:56;100683.03;;;13.88
70819;BMP280;58439;51.046;13.692;2022-09-01T01:54:30;100689.09;;;13.88
70819;BMP280;58439;51.046;13.692;2022-09-01T01:56:59;100689.47;;;13.85
70819;BMP280;58439;51.046;13.692;2022-09-01T01:59:27;100688.47;;;13.80
70819;BMP280;58439;51.046;13.692;2022-09-01T02:01:55;100685.44;;;13.83
70819;BMP280;58439;51.046;13.692;2022-09-01T02:04:22;100701.41;;;13.81
70819;BMP280;58439;51.046;13.692;2022-09-01T02:06:52;100691.66;;;13.75
70819;BMP280;58439;51.046;13.692;2022-09-01T02:09:27;100695.94;;;13.76
70819;BMP280;58439;51.046;13.692;2022-09-01T02:11:54;100693.13;;;13.78
70819;BMP280;58439;51.046;13.692;2022-09-01T02:14:24;100696.16;;;13.81
70819;BMP280;58439;51.046;13.692;2022-09-01T02:16:51;100691.06;;;13.73
70819;BMP280;58439;51.046;13.692;2022-09-01T02:19:21;100695.28;;;13.68
70819;BMP280;58439;51.046;13.692;2022-09-01T02:21:49;100696.53;;;13.65
70819;BMP280;58439;51.046;13.692;2022-09-01T02:24:21;100699.16;;;13.65
70819;BMP280;58439;51.046;13.692;2022-09-01T02:26:49;100692.06;;;13.66
70819;BMP280;58439;51.046;13.692;2022-09-01T02:29:22;100694.25;;;13.62
70819;BMP280;58439;51.046;13.692;2022-09-01T02:31:53;100687.81;;;13.65
70819;BMP280;58439;51.046;13.692;2022-09-01T02:34:26;100689.63;;;13.64
70819;BMP280;58439;51.046;13.692;2022-09-01T02:36:56;100683.13;;;13.60
70819;BMP280;58439;51.046;13.692;2022-09-01T02:39:29;100679.66;;;13.59
70819;BMP280;58439;51.046;13.692;2022-09-01T02:42:00;100685.34;;;13.56
70819;BMP280;58439;51.046;13.692;2022-09-01T02:44:28;100676.88;;;13.61
70819;BMP280;58439;51.046;13.692;2022-09-01T02:46:57;100674.03;;;13.63
70819;BMP280;58439;51.046;13.692;2022-09-01T02:49:25;100674.66;;;13.65
70819;BMP280;58439;51.046;13.692;2022-09-01T02:51:58;100673.66;;;13.66
70819;BMP280;58439;51.046;13.692;2022-09-01T02:54:30;100667.59;;;13.65
70819;BMP280;58439;51.046;13.692;2022-09-01T02:56:58;100665.16;;;13.70
70819;BMP280;58439;51.046;13.692;2022-09-01T02:59:28;100662.75;;;13.69
70819;BMP280;58439;51.046;13.692;2022-09-01T03:01:58;100663.94;;;13.73
70819;BMP280;58439;51.046;13.692;2022-09-01T03:04:25;100662.56;;;13.77
70819;BMP280;58439;51.046;13.692;2022-09-01T03:06:54;100657.06;;;13.78
70819;BMP280;58439;51.046;13.692;2022-09-01T03:09:25;100662.97;;;13.80
70819;BMP280;58439;51.046;13.692;2022-09-01T03:11:54;100664.78;;;13.86
70819;BMP280;58439;51.046;13.692;2022-09-01T03:14:24;100660.34;;;13.87
70819;BMP280;58439;51.046;13.692;2022-09-01T03:16:53;100655.91;;;13.87
70819;BMP280;58439;51.046;13.692;2022-09-01T03:19:20;100657.06;;;13.78
70819;BMP280;58439;51.046;13.692;2022-09-01T03:21:47;100662.53;;;13.70
70819;BMP280;58439;51.046;13.692;2022-09-01T03:24:19;100674.44;;;13.66
70819;BMP280;58439;51.046;13.692;2022-09-01T03:26:50;100674.03;;;13.63
70819;BMP280;58439;51.046;13.692;2022-09-01T03:29:19;100679.09;;;13.57
70819;BMP280;58439;51.046;13.692;2022-09-01T03:31:46;100676.63;;;13.49
70819;BMP280;58439;51.046;13.692;2022-09-01T03:34:14;100666.72;;;13.45
70819;BMP280;58439;51.046;13.692;2022-09-01T03:36:49;100672.38;;;13.48
70819;BMP280;58439;51.046;13.692;2022-09-01T03:39:23;100683.69;;;13.49
70819;BMP280;58439;51.046;13.692;2022-09-01T03:41:50;100680.44;;;13.47
70819;BMP280;58439;51.046;13.692;2022-09-01T03:44:18;100673.19;;;13.49
70819;BMP280;58439;51.046;13.692;2022-09-01T03:46:45;100674.38;;;13.46
70819;BMP280;58439;51.046;13.692;2022-09-01T03:49:13;100669.56;;;13.50
70819;BMP280;58439;51.046;13.692;2022-09-01T03:51:43;100671.16;;;13.51
70819;BMP280;58439;51.046;13.692;2022-09-01T03:54:13;100672.78;;;13.52
70819;BMP280;58439;51.046;13.692;2022-09-01T03:56:41;100678.66;;;13.54
70819;BMP280;58439;51.046;13.692;2022-09-01T03:59:17;100681.72;;;13.57
70819;BMP280;58439;51.046;13.692;2022-09-01T04:01:46;100681.91;;;13.56
70819;BMP280;58439;51.046;13.692;2022-09-01T04:04:15;100682.91;;;13.55
70819;BMP280;58439;51.046;13.692;2022-09-01T04:06:45;100678.66;;;13.54
70819;BMP280;58439;51.046;13.692;2022-09-01T04:09:13;100677.25;;;13.51
70819;BMP280;58439;51.046;13.692;2022-09-01T04:11:44;100682.50;;;13.51
70819;BMP280;58439;51.046;13.692;2022-09-01T04:14:15;100679.91;;;13.58
70819;BMP280;58439;51.046;13.692;2022-09-01T04:16:44;100676.50;;;13.64
70819;BMP280;58439;51.046;13.692;2022-09-01T04:19:37;100681.13;;;13.62
70819;BMP280;58439;51.046;13.692;2022-09-01T04:22:11;100673.22;;;13.62
70819;BMP280;58439;51.046;13.692;2022-09-01T04:24:43;100685.34;;;13.56
70819;BMP280;58439;51.046;13.692;2022-09-01T04:27:16;100678.28;;;13.57
70819;BMP280;58439;51.046;13.692;2022-09-01T04:29:44;100676.84;;;13.54
70819;BMP280;58439;51.046;13.692;2022-09-01T04:32:13;100678.66;;;13.54
70819;BMP280;58439;51.046;13.692;2022-09-01T04:34:45;100675.00;;;13.55
70819;BMP280;58439;51.046;13.692;2022-09-01T04:37:20;100681.72;;;13.57
70819;BMP280;58439;51.046;13.692;2022-09-01T04:39:56;100676.66;;;13.63
70819;BMP280;58439;51.046;13.692;2022-09-01T04:42:29;100684.97;;;13.66
70819;BMP280;58439;51.046;13.692;2022-09-01T04:45:00;100680.94;;;13.70
70819;BMP280;58439;51.046;13.692;2022-09-01T04:47:38;100684.63;;;13.76
70819;BMP280;58439;51.046;13.692;2022-09-01T04:50:10;100681.81;;;13.84
70819;BMP280;58439;51.046;13.692;2022-09-01T04:53:05;100681.84;;;13.97
70819;BMP280;58439;51.046;13.692;2022-09-01T04:55:43;100675.97;;;14.02
70819;BMP280;58439;51.046;13.692;2022-09-01T04:58:17;100676.56;;;14.04
70819;BMP280;58439;51.046;13.692;2022-09-01T05:00:48;100681.41;;;14.07
70819;BMP280;58439;51.046;13.692;2022-09-01T05:03:19;100683.22;;;14.06
70819;BMP280;58439;51.046;13.692;2022-09-01T05:05:53;100683.22;;;14.06
70819;BMP280;58439;51.046;13.692;2022-09-01T05:08:22;100687.06;;;14.10
70819;BMP280;58439;51.046;13.692;2022-09-01T05:10:54;100688.72;;;14.11
70819;BMP280;58439;51.046;13.692;2022-09-01T05:13:47;100689.72;;;14.10
70819;BMP280;58439;51.046;13.692;2022-09-01T05:16:19;100695.59;;;14.12
70819;BMP280;58439;51.046;13.692;2022-09-01T05:18:54;100694.00;;;14.11
70819;BMP280;58439;51.046;13.692;2022-09-01T05:21:28;100692.16;;;14.12
70819;BMP280;58439;51.046;13.692;2022-09-01T05:23:59;100696.00;;;14.16
70819;BMP280;58439;51.046;13.692;2022-09-01T05:26:30;100692.16;;;14.25
70819;BMP280;58439;51.046;13.692;2022-09-01T05:29:04;100696.03;;;14.36
70819;BMP280;58439;51.046;13.692;2022-09-01T05:31:39;100699.66;;;14.48
70819;BMP280;58439;51.046;13.692;2022-09-01T05:34:08;100706.34;;;14.57
70819;BMP280;58439;51.046;13.692;2022-09-01T05:36:44;100707.94;;;14.65
70819;BMP280;58439;51.046;13.692;2022-09-01T05:39:12;100700.47;;;14.68
70819;BMP280;58439;51.046;13.692;2022-09-01T05:41:41;100702.88;;;14.70
70819;BMP280;58439;51.046;13.692;2022-09-01T05:44:11;100700.69;;;14.67
70819;BMP280;58439;51.046;13.692;2022-09-01T05:46:40;100698.22;;;14.72
70819;BMP280;58439;51.046;13.692;2022-09-01T05:49:12;100704.50;;;14.71
70819;BMP280;58439;51.046;13.692;2022-09-01T05:51:49;100702.88;;;14.70
70819;BMP280;58439;51.046;13.692;2022-09-01T05:54:22;100696.81;;;14.69
70819;BMP280;58439;51.046;13.692;2022-09-01T05:56:51;100698.66;;;14.75
70819;BMP280;58439;51.046;13.692;2022-09-01T05:59:26;100702.25;;;14.88
70819;BMP280;58439;51.046;13.692;2022-09-01T06:02:00;100708.75;;;14.98
70819;BMP280;58439;51.046;13.692;2022-09-01T06:04:28;100699.34;;;15.16
70819;BMP280;58439;51.046;13.692;2022-09-01T06:07:01;100703.75;;;15.28
70819;BMP280;58439;51.046;13.692;2022-09-01T06:09:44;100697.81;;;15.46
70819;BMP280;58439;51.046;13.692;2022-09-01T06:12:14;100702.63;;;15.56
70819;BMP280;58439;51.046;13.692;2022-09-01T06:14:51;100699.28;;;15.74
70819;BMP280;58439;51.046;13.692;2022-09-01T06:17:25;100694.41;;;15.77
70819;BMP280;58439;51.046;13.692;2022-09-01T06:19:56;100697.78;;;15.84
70819;BMP280;58439;51.046;13.692;2022-09-01T06:22:27;100705.28;;;15.87
70819;BMP280;58439;51.046;13.692;2022-09-01T06:24:55;100711.56;;;15.93
70819;BMP280;58439;51.046;13.692;2022-09-01T06:27:32;100703.97;;;16.03
70819;BMP280;58439;51.046;13.692;2022-09-01T06:30:00;100705.13;;;16.07
70819;BMP280;58439;51.046;13.692;2022-09-01T06:32:35;100706.44;;;16.23
70819;BMP280;58439;51.046;13.692;2022-09-01T06:35:05;100701.59;;;16.45
70819;BMP280;58439;51.046;13.692;2022-09-01T06:37:35;100707.50;;;16.65
70819;BMP280;58439;51.046;13.692;2022-09-01T06:40:05;100714.28;;;16.79
70819;BMP280;58439;51.046;13.692;2022-09-01T06:42:39;100716.84;;;17.04
70819;BMP280;58439;51.046;13.692;2022-09-01T06:45:08;100712.13;;;17.25
70819;BMP280;58439;51.046;13.692;2022-09-01T06:47:36;100714.38;;;17.21
70819;BMP280;58439;51.046;13.692;2022-09-01T06:50:04;100712.50;;;17.10
70819;BMP280;58439;51.046;13.692;2022-09-01T06:52:35;100719.84;;;16.90
70819;BMP280;58439;51.046;13.692;2022-09-01T06:55:22;100717.78;;;16.73
70819;BMP280;58439;51.046;13.692;2022-09-01T06:57:49;100721.00;;;16.75
70819;BMP280;58439;51.046;13.692;2022-09-01T07:00:42;100724.56;;;16.88
70819;BMP280;58439;51.046;13.692;2022-09-01T07:03:12;100725.44;;;17.00
70819;BMP280;58439;51.046;13.692;2022-09-01T07:06:06;100725.34;;;17.25
70819;BMP280;58439;51.046;13.692;2022-09-01T07:09:14;100719.47;;;17.53
70819;BMP280;58439;51.046;13.692;2022-09-01T07:12:09;100726.91;;;17.62
70819;BMP280;58439;51.046;13.692;2022-09-01T07:14:52;100721.91;;;17.54
70819;BMP280;58439;51.046;13.692;2022-09-01T07:17:54;100727.19;;;17.54
70819;BMP280;58439;51.046;13.692;2022-09-01T07:20:27;100730.97;;;17.46
70819;BMP280;58439;51.046;13.692;2022-09-01T07:23:25;100730.34;;;17.63
70819;BMP280;58439;51.046;13.692;2022-09-01T07:25:54;100728.41;;;17.82
70819;BMP280;58439;51.046;13.692;2022-09-01T07:28:35;100724.41;;;17.79
70819;BMP280;58439;51.046;13.692;2022-09-01T07:31:05;100731.22;;;17.87
70819;BMP280;58439;51.046;13.692;2022-09-01T07:34:01;100725.97;;;17.98
70819;BMP280;58439;51.046;13.692;2022-09-01T07:36:52;100728.13;;;18.01
70819;BMP280;58439;51.046;13.692;2022-09-01T07:39:43;100724.66;;;17.89
70819;BMP280;58439;51.046;13.692;2022-09-01T07:42:54;100733.72;;;17.82
70819;BMP280;58439;51.046;13.692;2022-09-01T07:45:52;100732.16;;;17.92
70819;BMP280;58439;51.046;13.692;2022-09-01T07:48:27;100735.75;;;17.98
70819;BMP280;58439;51.046;13.692;2022-09-01T07:51:23;100734.03;;;18.03
70819;BMP280;58439;51.046;13.692;2022-09-01T07:54:07;100742.09;;;18.08
70819;BMP280;58439;51.046;13.692;2022-09-01T07:56:34;100737.94;;;18.24
70819;BMP280;58439;51.046;13.692;2022-09-01T07:59:09;100736.13;;;18.36
70819;BMP280;58439;51.046;13.692;2022-09-01T08:01:49;100734.41;;;18.42
70819;BMP280;58439;51.046;13.692;2022-09-01T08:04:19;100733.59;;;18.42
70819;BMP280;58439;51.046;13.692;2022-09-01T08:06:50;100738.63;;;18.43
70819;BMP280;58439;51.046;13.692;2022-09-01T08:09:18;100733.81;;;18.52
70819;BMP280;58439;51.046;13.692;2022-09-01T08:12:07;100734.41;;;18.65
70819;BMP280;58439;51.046;13.692;2022-09-01T08:14:43;100735.28;;;18.83
70819;BMP280;58439;51.046;13.692;2022-09-01T08:17:13;100742.06;;;19.02
70819;BMP280;58439;51.046;13.692;2022-09-01T08:20:07;100733.38;;;19.35
70819;BMP280;58439;51.046;13.692;2022-09-01T08:22:57;100740.75;;;19.61
70819;BMP280;58439;51.046;13.692;2022-09-01T08:25:36;100745.13;;;19.68
70819;BMP280;58439;51.046;13.692;2022-09-01T08:28:05;100740.13;;;19.71
70819;BMP280;58439;51.046;13.692;2022-09-01T08:30:33;100743.38;;;19.90
70819;BMP280;58439;51.046;13.692;2022-09-01T08:33:03;100735.69;;;20.10
70819;BMP280;58439;51.046;13.692;2022-09-01T08:35:47;100741.38;;;20.31
70819;BMP280;58439;51.046;13.692;2022-09-01T08:38:17;100731.75;;;20.46
70819;BMP280;58439;51.046;13.692;2022-09-01T08:40:53;100741.16;;;20.54
70819;BMP280;58439;51.046;13.692;2022-09-01T08:46:34;100744.19;;;20.84
70819;BMP280;58439;51.046;13.692;2022-09-01T08:49:17;100742.19;;;20.97
70819;BMP280;58439;51.046;13.692;2022-09-01T08:52:38;100742.19;;;20.75
70819;BMP280;58439;51.046;13.692;2022-09-01T08:55:31;100740.66;;;20.79
70819;BMP280;58439;51.046;13.692;2022-09-01T08:58:03;100743.75;;;21.19
70819;BMP280;58439;51.046;13.692;2022-09-01T09:00:58;100740.19;;;21.63
70819;BMP280;58439;51.046;13.692;2022-09-01T09:03:52;100743.66;;;22.00
70819;BMP280;58439;51.046;13.692;2022-09-01T09:09:46;100740.69;;;22.39
70819;BMP280;58439;51.046;13.692;2022-09-01T09:16:01;100740.69;;;23.06
70819;BMP280;58439;51.046;13.692;2022-09-01T09:19:09;100746.03;;;23.22
70819;BMP280;58439;51.046;13.692;2022-09-01T09:21:45;100740.97;;;23.25
70819;BMP280;58439;51.046;13.692;2022-09-01T09:27:23;100737.47;;;23.75
70819;BMP280;58439;51.046;13.692;2022-09-01T09:30:02;100740.88;;;24.11
70819;BMP280;58439;51.046;13.692;2022-09-01T09:32:59;100738.44;;;24.30
70819;BMP280;58439;51.046;13.692;2022-09-01T09:35:46;100739.94;;;24.46
70819;BMP280;58439;51.046;13.692;2022-09-01T09:38:21;100742.53;;;24.72
70819;BMP280;58439;51.046;13.692;2022-09-01T09:41:08;100736.84;;;24.83
70819;BMP280;58439;51.046;13.692;2022-09-01T09:44:00;100734.75;;;24.75
70819;BMP280;58439;51.046;13.692;2022-09-01T09:46:38;100736.75;;;24.94
70819;BMP280;58439;51.046;13.692;2022-09-01T09:54:31;100733.03;;;25.29
70819;BMP280;58439;51.046;13.692;2022-09-01T09:59:47;100741.59;;;25.60
70819;BMP280;58439;51.046;13.692;2022-09-01T10:02:42;100733.41;;;25.70
70819;BMP280;58439;51.046;13.692;2022-09-01T10:05:26;100734.66;;;25.53
70819;BMP280;58439;51.046;13.692;2022-09-01T10:07:57;100733.66;;;25.49
70819;BMP280;58439;51.046;13.692;2022-09-01T10:10:41;100735.38;;;25.64
70819;BMP280;58439;51.046;13.692;2022-09-01T10:13:13;100739.09;;;25.68
70819;BMP280;58439;51.046;13.692;2022-09-01T10:15:52;100730.50;;;25.95
70819;BMP280;58439;51.046;13.692;2022-09-01T10:18:36;100734.34;;;26.50
70819;BMP280;58439;51.046;13.692;2022-09-01T10:21:36;100735.38;;;26.73
70819;BMP280;58439;51.046;13.692;2022-09-01T10:24:29;100726.00;;;26.71
70819;BMP280;58439;51.046;13.692;2022-09-01T10:27:02;100727.22;;;26.97
70819;BMP280;58439;51.046;13.692;2022-09-01T10:30:11;100725.19;;;27.08
70819;BMP280;58439;51.046;13.692;2022-09-01T10:33:03;100722.28;;;27.18
70819;BMP280;58439;51.046;13.692;2022-09-01T10:35:50;100719.47;;;27.55
70819;BMP280;58439;51.046;13.692;2022-09-01T10:38:28;100723.56;;;27.39
70819;BMP280;58439;51.046;13.692;2022-09-01T10:40:58;100718.59;;;27.60
70819;BMP280;58439;51.046;13.692;2022-09-01T10:43:48;100717.34;;;27.39
70819;BMP280;58439;51.046;13.692;2022-09-01T10:48:56;100722.66;;;27.57
70819;BMP280;58439;51.046;13.692;2022-09-01T10:57:38;100708.41;;;32.46
70819;BMP280;58439;51.046;13.692;2022-09-01T11:06:08;100712.25;;;36.81
70819;BMP280;58439;51.046;13.692;2022-09-01T11:08:56;100709.19;;;37.79
70819;BMP280;58439;51.046;13.692;2022-09-01T11:11:42;100715.91;;;38.87
70819;BMP280;58439;51.046;13.692;2022-09-01T11:14:21;100716.47;;;39.21
70819;BMP280;58439;51.046;13.692;2022-09-01T11:19:52;100708.00;;;39.87
70819;BMP280;58439;51.046;13.692;2022-09-01T11:34:10;100692.41;;;34.50
70819;BMP280;58439;51.046;13.692;2022-09-01T11:42:10;100685.56;;;30.21
70819;BMP280;58439;51.046;13.692;2022-09-01T11:47:34;100691.38;;;28.03
70819;BMP280;58439;51.046;13.692;2022-09-01T11:50:31;100682.91;;;27.68
70819;BMP280;58439;51.046;13.692;2022-09-01T11:53:13;100686.03;;;27.48
70819;BMP280;58439;51.046;13.692;2022-09-01T11:55:51;100688.66;;;27.20
70819;BMP280;58439;51.046;13.692;2022-09-01T11:58:33;100681.03;;;27.27
70819;BMP280;58439;51.046;13.692;2022-09-01T12:01:34;100682.19;;;27.21
70819;BMP280;58439;51.046;13.692;2022-09-01T12:04:24;100674.28;;;26.65
70819;BMP280;58439;51.046;13.692;2022-09-01T12:09:42;100683.97;;;25.81
70819;BMP280;58439;51.046;13.692;2022-09-01T12:12:38;100685.81;;;25.33
70819;BMP280;58439;51.046;13.692;2022-09-01T12:15:25;100689.31;;;25.04
70819;BMP280;58439;51.046;13.692;2022-09-01T12:18:08;100691.41;;;24.73
70819;BMP280;58439;51.046;13.692;2022-09-01T12:20:37;100682.78;;;24.32
70819;BMP280;58439;51.046;13.692;2022-09-01T12:23:24;100673.19;;;24.21
70819;BMP280;58439;51.046;13.692;2022-09-01T12:25:59;100677.72;;;24.26
70819;BMP280;58439;51.046;13.692;2022-09-01T12:28:30;100684.13;;;24.30
70819;BMP280;58439;51.046;13.692;2022-09-01T12:31:04;100681.53;;;24.64
70819;BMP280;58439;51.046;13.692;2022-09-01T12:33:35;100675.97;;;24.55
70819;BMP280;58439;51.046;13.692;2022-09-01T12:38:41;100664.72;;;24.58
70819;BMP280;58439;51.046;13.692;2022-09-01T12:41:34;100667.63;;;24.62
70819;BMP280;58439;51.046;13.692;2022-09-01T12:44:33;100675.41;;;24.58
70819;BMP280;58439;51.046;13.692;2022-09-01T12:47:06;100667.56;;;24.67
70819;BMP280;58439;51.046;13.692;2022-09-01T12:49:43;100669.75;;;24.65
70819;BMP280;58439;51.046;13.692;2022-09-01T12:52:21;100681.50;;;25.03
70819;BMP280;58439;51.046;13.692;2022-09-01T12:55:14;100672.19;;;26.06
70819;BMP280;58439;51.046;13.692;2022-09-01T12:58:06;100659.06;;;26.61
70819;BMP280;58439;51.046;13.692;2022-09-01T13:00:55;100664.53;;;29.40
70819;BMP280;58439;51.046;13.692;2022-09-01T13:03:37;100667.69;;;34.86
70819;BMP280;58439;51.046;13.692;2022-09-01T13:06:08;100666.16;;;38.13
70819;BMP280;58439;51.046;13.692;2022-09-01T13:08:36;100665.16;;;37.17
70819;BMP280;58439;51.046;13.692;2022-09-01T13:11:06;100658.81;;;35.63
70819;BMP280;58439;51.046;13.692;2022-09-01T13:13:34;100653.09;;;34.00
70819;BMP280;58439;51.046;13.692;2022-09-01T13:16:03;100657.91;;;32.87
70819;BMP280;58439;51.046;13.692;2022-09-01T13:18:42;100646.28;;;32.29
70819;BMP280;58439;51.046;13.692;2022-09-01T13:21:34;100639.09;;;31.79
70819;BMP280;58439;51.046;13.692;2022-09-01T13:24:04;100639.44;;;31.57
70819;BMP280;58439;51.046;13.692;2022-09-01T13:26:33;100636.31;;;31.25
70819;BMP280;58439;51.046;13.692;2022-09-01T13:29:00;100635.16;;;32.43
70819;BMP280;58439;51.046;13.692;2022-09-01T13:31:28;100631.28;;;35.48
70819;BMP280;58439;51.046;13.692;2022-09-01T13:33:58;100638.97;;;36.53
70819;BMP280;58439;51.046;13.692;2022-09-01T13:36:48;100638.19;;;39.17
70819;BMP280;58439;51.046;13.692;2022-09-01T13:39:18;100643.25;;;39.08
70819;BMP280;58439;51.046;13.692;2022-09-01T13:41:47;100635.94;;;39.86
70819;BMP280;58439;51.046;13.692;2022-09-01T13:44:16;100642.38;;;40.74
70819;BMP280;58439;51.046;13.692;2022-09-01T13:46:45;100639.84;;;39.67
70819;BMP280;58439;51.046;13.692;2022-09-01T13:49:41;100638.16;;;39.10
70819;BMP280;58439;51.046;13.692;2022-09-01T13:52:32;100632.91;;;38.62
70819;BMP280;58439;51.046;13.692;2022-09-01T13:55:01;100633.84;;;35.61
70819;BMP280;58439;51.046;13.692;2022-09-01T13:57:28;100623.03;;;35.64
70819;BMP280;58439;51.046;13.692;2022-09-01T14:00:06;100629.47;;;34.63
70819;BMP280;58439;51.046;13.692;2022-09-01T14:02:39;100632.59;;;33.75
70819;BMP280;58439;51.046;13.692;2022-09-01T14:05:08;100625.91;;;31.78
70819;BMP280;58439;51.046;13.692;2022-09-01T14:07:37;100640.31;;;30.18
70819;BMP280;58439;51.046;13.692;2022-09-01T14:10:05;100620.97;;;29.16
70819;BMP280;58439;51.046;13.692;2022-09-01T14:12:33;100626.63;;;28.44
70819;BMP280;58439;51.046;13.692;2022-09-01T14:15:04;100632.25;;;27.48
70819;BMP280;58439;51.046;13.692;2022-09-01T14:17:45;100626.84;;;27.20
70819;BMP280;58439;51.046;13.692;2022-09-01T14:20:18;100625.81;;;26.89
70819;BMP280;58439;51.046;13.692;2022-09-01T14:22:47;100626.41;;;26.86
70819;BMP280;58439;51.046;13.692;2022-09-01T14:25:17;100626.63;;;26.89
70819;BMP280;58439;51.046;13.692;2022-09-01T14:27:46;100628.00;;;26.87
70819;BMP280;58439;51.046;13.692;2022-09-01T14:30:22;100628.22;;;26.58
70819;BMP280;58439;51.046;13.692;2022-09-01T14:32:58;100627.66;;;26.42
70819;BMP280;58439;51.046;13.692;2022-09-01T14:35:39;100631.69;;;26.59
70819;BMP280;58439;51.046;13.692;2022-09-01T14:38:07;100631.41;;;27.06
70819;BMP280;58439;51.046;13.692;2022-09-01T14:40:36;100629.66;;;26.83
70819;BMP280;58439;51.046;13.692;2022-09-01T14:43:11;100626.56;;;26.76
70819;BMP280;58439;51.046;13.692;2022-09-01T14:46:01;100626.63;;;26.89
70819;BMP280;58439;51.046;13.692;2022-09-01T14:48:33;100620.00;;;26.68
70819;BMP280;58439;51.046;13.692;2022-09-01T14:51:00;100623.66;;;26.21
70819;BMP280;58439;51.046;13.692;2022-09-01T14:53:30;100628.31;;;26.34
70819;BMP280;58439;51.046;13.692;2022-09-01T14:56:00;100620.84;;;26.12
70819;BMP280;58439;51.046;13.692;2022-09-01T14:58:28;100624.31;;;25.94
70819;BMP280;58439;51.046;13.692;2022-09-01T15:00:56;100627.00;;;25.70
70819;BMP280;58439;51.046;13.692;2022-09-01T15:03:36;100630.25;;;25.67
70819;BMP280;58439;51.046;13.692;2022-09-01T15:06:04;100614.69;;;25.45
70819;BMP280;58439;51.046;13.692;2022-09-01T15:08:32;100615.16;;;25.29
70819;BMP280;58439;51.046;13.692;2022-09-01T15:10:59;100617.47;;;25.06
70819;BMP280;58439;51.046;13.692;2022-09-01T15:13:27;100619.38;;;24.77
70819;BMP280;58439;51.046;13.692;2022-09-01T15:15:54;100625.81;;;24.71
70819;BMP280;58439;51.046;13.692;2022-09-01T15:18:24;100618.31;;;24.34
70819;BMP280;58439;51.046;13.692;2022-09-01T15:20:51;100611.56;;;23.97
70819;BMP280;58439;51.046;13.692;2022-09-01T15:23:24;100616.47;;;23.70
70819;BMP280;58439;51.046;13.692;2022-09-01T15:25:54;100622.38;;;23.46
70819;BMP280;58439;51.046;13.692;2022-09-01T15:28:23;100618.09;;;23.50
70819;BMP280;58439;51.046;13.692;2022-09-01T15:30:52;100622.63;;;23.65
70819;BMP280;58439;51.046;13.692;2022-09-01T15:33:20;100626.59;;;23.68